createdAt,value
2018-09-06T00:00:06.637Z,8.00
2018-09-06T00:02:35.825Z,9.20
2018-09-06T00:05:05.140Z,9.10
2018-09-06T00:07:34.360Z,8.90
2018-09-06T00:10:03.624Z,8.80
2018-09-06T00:12:32.808Z,8.53
2018-09-06T00:15:02.081Z,9.23
2018-09-06T00:17:31.280Z,8.83
2018-09-06T00:20:00.489Z,8.68
2018-09-06T00:22:29.669Z,8.75
2018-09-06T00:24:58.861Z,8.70
2018-09-06T00:27:28.050Z,7.70
2018-09-06T00:29:57.253Z,8.75
2018-09-06T00:32:26.438Z,8.40
2018-09-06T00:34:55.676Z,7.33
2018-09-06T00:37:24.857Z,7.60
2018-09-06T00:39:54.049Z,8.23
2018-09-06T00:42:23.389Z,8.73
2018-09-06T00:44:52.653Z,8.18
2018-09-06T00:47:22.005Z,8.75
2018-09-06T00:49:51.220Z,8.98
2018-09-06T00:52:20.430Z,8.18
2018-09-06T00:54:49.638Z,9.13
2018-09-06T00:57:18.847Z,9.08
2018-09-06T00:59:48.027Z,8.48
2018-09-06T01:02:17.229Z,9.15
2018-09-06T01:04:46.448Z,8.55
2018-09-06T01:07:15.660Z,8.93
2018-09-06T01:09:44.840Z,8.88
2018-09-06T01:12:15.432Z,8.18
2018-09-06T01:14:44.824Z,8.10
2018-09-06T01:17:14.261Z,7.65
2018-09-06T01:19:43.700Z,8.50
2018-09-06T01:22:12.920Z,7.87
2018-09-06T01:24:42.283Z,8.23
2018-09-06T01:27:11.489Z,8.35
2018-09-06T01:29:40.797Z,8.15
2018-09-06T01:32:09.993Z,9.20
2018-09-06T01:34:39.336Z,8.53
2018-09-06T01:37:10.393Z,8.28
2018-09-06T01:39:40.513Z,7.92
2018-09-06T01:42:10.063Z,8.65
2018-09-06T01:44:39.268Z,8.70
2018-09-06T01:47:08.501Z,8.00
2018-09-06T01:49:37.695Z,8.40
2018-09-06T01:52:06.904Z,8.80
2018-09-06T01:54:36.076Z,9.03
2018-09-06T01:57:05.292Z,9.28
2018-09-06T01:59:36.665Z,9.95
2018-09-06T02:02:06.179Z,9.83
2018-09-06T02:04:35.420Z,9.25
2018-09-06T02:07:04.687Z,8.65
2018-09-06T02:09:33.893Z,8.18
2018-09-06T02:12:03.096Z,8.35
2018-09-06T02:14:32.348Z,8.90
2018-09-06T02:17:01.540Z,9.25
2018-09-06T02:19:30.734Z,9.05
2018-09-06T02:21:59.929Z,8.00
2018-09-06T02:24:29.186Z,8.88
2018-09-06T02:26:58.344Z,8.18
2018-09-06T02:29:27.533Z,8.08
2018-09-06T02:31:56.724Z,8.73
2018-09-06T02:34:25.933Z,8.55
2018-09-06T02:36:55.153Z,8.63
2018-09-06T02:39:24.380Z,8.43
2018-09-06T02:41:53.579Z,8.50
2018-09-06T02:44:22.746Z,9.40
2018-09-06T02:46:51.953Z,8.75
2018-09-06T02:49:26.528Z,9.10
2018-09-06T02:51:55.723Z,9.63
2018-09-06T02:54:24.917Z,9.03
2018-09-06T02:56:54.206Z,9.10
2018-09-06T02:59:23.804Z,9.03
2018-09-06T03:01:52.992Z,8.88
2018-09-06T03:04:22.152Z,8.80
2018-09-06T03:06:51.424Z,8.70
2018-09-06T03:09:22.318Z,8.40
2018-09-06T03:11:54.991Z,8.65
2018-09-06T03:14:24.162Z,8.25
2018-09-06T03:16:53.361Z,8.45
2018-09-06T03:19:22.538Z,7.87
2018-09-06T03:21:51.824Z,8.18
2018-09-06T03:24:21.004Z,7.55
2018-09-06T03:26:50.229Z,8.48
2018-09-06T03:29:19.401Z,8.23
2018-09-06T03:31:48.644Z,8.28
2018-09-06T03:34:17.808Z,8.05
2018-09-06T03:36:46.988Z,8.60
2018-09-06T03:39:16.148Z,8.00
2018-09-06T03:41:45.344Z,8.33
2018-09-06T03:44:14.560Z,9.23
2018-09-06T03:46:43.756Z,8.30
2018-09-06T03:49:12.929Z,9.93
2018-09-06T03:51:42.156Z,8.58
2018-09-06T03:54:11.336Z,8.95
2018-09-06T03:56:40.580Z,8.55
2018-09-06T03:59:09.760Z,8.38
2018-09-06T04:01:38.988Z,7.95
2018-09-06T04:04:08.160Z,8.23
2018-09-06T04:06:37.357Z,9.10
2018-09-06T04:09:10.013Z,7.97
2018-09-06T04:11:39.226Z,8.75
2018-09-06T04:14:08.408Z,8.95
2018-09-06T04:16:38.073Z,9.03
2018-09-06T04:19:07.682Z,8.55
2018-09-06T04:21:36.872Z,8.35
2018-09-06T04:24:06.453Z,8.48
2018-09-06T04:26:35.656Z,8.80
2018-09-06T04:29:04.864Z,9.33
2018-09-06T04:31:34.036Z,8.83
2018-09-06T04:34:03.248Z,8.73
2018-09-06T04:36:32.441Z,9.25
2018-09-06T04:39:08.657Z,9.68
2018-09-06T04:41:37.829Z,8.65
2018-09-06T04:44:07.120Z,8.85
2018-09-06T04:46:36.660Z,8.73
2018-09-06T04:49:05.872Z,9.28
2018-09-06T04:51:35.052Z,8.58
2018-09-06T04:54:04.248Z,8.30
2018-09-06T04:56:33.433Z,7.87
2018-09-06T04:59:02.641Z,9.28
2018-09-06T05:01:31.832Z,8.93
2018-09-06T05:04:01.048Z,9.45
2018-09-06T05:06:30.229Z,9.60
2018-09-06T05:08:59.496Z,8.38
2018-09-06T05:11:29.575Z,9.28
2018-09-06T05:13:58.780Z,9.60
2018-09-06T05:16:27.968Z,9.73
2018-09-06T05:18:57.175Z,10.82
2018-09-06T05:21:26.356Z,10.25
2018-09-06T05:23:55.559Z,10.18
2018-09-06T05:26:24.861Z,9.45
2018-09-06T05:28:54.080Z,10.13
2018-09-06T05:31:23.260Z,10.35
2018-09-06T05:33:52.460Z,9.83
2018-09-06T05:36:21.699Z,9.53
2018-09-06T05:38:50.888Z,9.90
2018-09-06T05:41:20.068Z,9.80
2018-09-06T05:43:49.278Z,9.90
2018-09-06T05:46:18.496Z,9.40
2018-09-06T05:48:47.693Z,9.23
2018-09-06T05:51:16.885Z,9.10
2018-09-06T05:53:46.093Z,10.15
2018-09-06T05:56:15.264Z,9.68
2018-09-06T05:58:44.475Z,10.32
2018-09-06T06:01:13.660Z,10.43
2018-09-06T06:03:42.847Z,10.43
2018-09-06T06:06:12.046Z,10.00
2018-09-06T06:08:45.837Z,9.03
2018-09-06T06:11:15.044Z,10.55
2018-09-06T06:13:44.261Z,8.95
2018-09-06T06:16:13.957Z,11.15
2018-09-06T06:18:43.398Z,10.15
2018-09-06T06:21:12.888Z,10.25
2018-09-06T06:23:42.168Z,10.23
2018-09-06T06:26:11.426Z,10.98
2018-09-06T06:28:40.603Z,10.13
2018-09-06T06:31:09.809Z,10.38
2018-09-06T06:33:39.025Z,10.78
2018-09-06T06:36:08.228Z,9.60
2018-09-06T06:38:37.480Z,9.05
2018-09-06T06:41:06.707Z,10.43
2018-09-06T06:43:35.920Z,10.08
2018-09-06T06:46:05.128Z,10.30
2018-09-06T06:48:34.336Z,9.85
2018-09-06T06:51:03.520Z,9.80
2018-09-06T06:53:32.724Z,10.32
2018-09-06T06:56:01.959Z,9.78
2018-09-06T06:58:31.192Z,9.70
2018-09-06T07:01:00.407Z,9.38
2018-09-06T07:03:29.600Z,9.10
2018-09-06T07:05:58.776Z,10.03
2018-09-06T07:08:28.009Z,9.40
2018-09-06T07:10:57.196Z,9.78
2018-09-06T07:13:26.400Z,10.03
2018-09-06T07:15:55.579Z,10.05
2018-09-06T07:18:24.901Z,9.65
2018-09-06T07:20:54.012Z,10.03
2018-09-06T07:23:23.217Z,8.78
2018-09-06T07:25:52.412Z,9.70
2018-09-06T07:28:21.610Z,8.70
2018-09-06T07:30:50.808Z,9.28
2018-09-06T07:33:20.027Z,8.88
2018-09-06T07:35:49.214Z,8.68
2018-09-06T07:38:18.421Z,9.05
2018-09-06T07:40:47.629Z,8.75
2018-09-06T07:43:16.863Z,7.80
2018-09-06T07:45:46.044Z,8.05
2018-09-06T07:48:15.220Z,8.23
2018-09-06T07:50:44.454Z,8.00
2018-09-06T07:53:13.741Z,7.62
2018-09-06T07:55:42.946Z,7.42
2018-09-06T07:58:12.133Z,8.15
2018-09-06T08:00:41.609Z,7.40
2018-09-06T08:03:11.720Z,8.13
2018-09-06T08:05:41.565Z,7.85
2018-09-06T08:08:11.172Z,7.53
2018-09-06T08:10:40.384Z,7.78
2018-09-06T08:13:09.565Z,7.17
2018-09-06T08:15:45.325Z,8.35
2018-09-06T08:18:14.500Z,7.53
2018-09-06T08:20:43.701Z,8.10
2018-09-06T08:23:12.880Z,7.80
2018-09-06T08:25:42.075Z,8.13
2018-09-06T08:28:11.245Z,7.87
2018-09-06T08:30:40.516Z,7.95
2018-09-06T08:33:09.681Z,7.55
2018-09-06T08:35:38.868Z,8.15
2018-09-06T08:38:08.440Z,7.78
2018-09-06T08:40:37.792Z,8.70
2018-09-06T08:43:07.371Z,8.25
2018-09-06T08:45:36.641Z,7.12
2018-09-06T08:48:05.868Z,8.25
2018-09-06T08:50:35.096Z,8.65
2018-09-06T08:53:04.288Z,8.18
2018-09-06T08:55:33.490Z,8.70
2018-09-06T08:58:02.684Z,8.10
2018-09-06T09:00:31.884Z,8.58
2018-09-06T09:03:01.090Z,8.88
2018-09-06T09:05:30.289Z,8.98
2018-09-06T09:07:59.502Z,8.98
2018-09-06T09:10:28.741Z,9.80
2018-09-06T09:12:57.932Z,8.38
2018-09-06T09:15:27.164Z,9.18
2018-09-06T09:17:56.450Z,9.75
2018-09-06T09:20:25.784Z,9.35
2018-09-06T09:22:54.995Z,8.35
2018-09-06T09:25:24.206Z,8.60
2018-09-06T09:27:53.392Z,8.80
2018-09-06T09:30:22.650Z,9.45
2018-09-06T09:32:51.985Z,9.13
2018-09-06T09:35:21.192Z,8.43
2018-09-06T09:37:50.381Z,8.85
2018-09-06T09:40:19.600Z,8.60
2018-09-06T09:42:48.806Z,8.08
2018-09-06T09:45:18.008Z,8.60
2018-09-06T09:47:47.244Z,8.83
2018-09-06T09:52:44.670Z,8.95
2018-09-06T09:55:13.895Z,9.70
2018-09-06T09:57:43.090Z,9.45
2018-09-06T10:00:12.353Z,8.48
2018-09-06T10:02:46.971Z,7.90
2018-09-06T10:05:21.532Z,8.78
2018-09-06T10:07:56.016Z,8.05
2018-09-06T10:10:25.526Z,8.33
2018-09-06T10:12:54.700Z,8.65
2018-09-06T10:15:23.906Z,8.73
2018-09-06T10:17:53.159Z,8.65
2018-09-06T10:20:22.404Z,8.38
2018-09-06T10:22:51.611Z,7.85
2018-09-06T10:25:20.897Z,8.78
2018-09-06T10:27:50.093Z,8.70
2018-09-06T10:30:19.289Z,8.00
2018-09-06T10:32:48.520Z,8.65
2018-09-06T10:35:17.820Z,7.83
2018-09-06T10:37:47.001Z,8.03
2018-09-06T10:40:16.212Z,7.80
2018-09-06T10:42:45.380Z,8.35
2018-09-06T10:45:14.620Z,7.92
2018-09-06T10:47:43.832Z,7.40
2018-09-06T10:50:13.032Z,8.25
2018-09-06T10:52:42.221Z,7.37
2018-09-06T10:55:11.396Z,7.80
2018-09-06T10:57:40.580Z,7.90
2018-09-06T11:00:09.864Z,8.00
2018-09-06T11:02:39.056Z,7.12
2018-09-06T11:05:08.269Z,7.30
2018-09-06T11:07:37.480Z,7.87
2018-09-06T11:10:06.742Z,7.65
2018-09-06T11:12:35.924Z,7.22
2018-09-06T11:15:05.309Z,7.12
2018-09-06T11:17:34.477Z,7.12
2018-09-06T11:20:10.348Z,7.22
2018-09-06T11:22:39.784Z,7.05
2018-09-06T11:25:09.122Z,7.30
2018-09-06T11:27:38.454Z,7.60
2018-09-06T11:30:07.707Z,6.45
2018-09-06T11:32:36.923Z,7.20
2018-09-06T11:35:06.224Z,6.72
2018-09-06T11:37:35.624Z,6.87
2018-09-06T11:40:04.876Z,6.97
2018-09-06T11:42:34.029Z,7.25
2018-09-06T11:45:03.221Z,6.65
2018-09-06T11:47:32.424Z,6.72
2018-09-06T11:50:01.639Z,7.60
2018-09-06T11:52:30.885Z,6.75
2018-09-06T11:55:00.189Z,6.53
2018-09-06T11:57:29.428Z,6.85
2018-09-06T11:59:58.589Z,6.78
2018-09-06T12:02:27.797Z,7.20
2018-09-06T12:04:57.021Z,6.87
2018-09-06T12:07:26.220Z,6.97
2018-09-06T12:09:55.415Z,6.60
2018-09-06T12:12:24.655Z,6.37
2018-09-06T12:14:53.835Z,6.60
2018-09-06T12:17:23.032Z,6.22
2018-09-06T12:19:52.270Z,6.83
2018-09-06T12:22:21.508Z,6.78
2018-09-06T12:24:50.689Z,7.03
2018-09-06T12:27:19.932Z,6.92
2018-09-06T12:29:49.137Z,7.15
2018-09-06T12:32:18.408Z,7.20
2018-09-06T12:34:47.560Z,7.17
2018-09-06T12:37:16.768Z,6.83
2018-09-06T12:39:46.701Z,6.47
2018-09-06T12:42:15.896Z,6.08
2018-09-06T12:44:45.093Z,6.53
2018-09-06T12:47:14.297Z,6.33
2018-09-06T12:49:43.546Z,6.17
2018-09-06T12:52:12.684Z,6.97
2018-09-06T12:54:41.944Z,7.03
2018-09-06T12:57:11.165Z,6.50
2018-09-06T12:59:40.368Z,6.03
2018-09-06T13:02:09.576Z,6.42
2018-09-06T13:04:38.886Z,6.78
2018-09-06T13:07:08.156Z,6.50
2018-09-06T13:09:37.455Z,6.67
2018-09-06T13:12:06.840Z,6.15
2018-09-06T13:14:36.053Z,6.60
2018-09-06T13:17:05.289Z,6.58
2018-09-06T13:19:34.909Z,5.83
2018-09-06T13:22:04.106Z,6.28
2018-09-06T13:24:33.299Z,6.37
2018-09-06T13:27:02.534Z,6.40
2018-09-06T13:29:31.728Z,7.15
2018-09-06T13:32:00.966Z,5.75
2018-09-06T13:34:30.152Z,5.85
2018-09-06T13:36:59.362Z,6.70
2018-09-06T13:39:28.548Z,6.55
2018-09-06T13:41:57.764Z,6.47
2018-09-06T13:44:26.949Z,6.05
2018-09-06T13:46:56.157Z,6.72
2018-09-06T13:49:25.342Z,6.45
2018-09-06T13:51:54.556Z,6.72
2018-09-06T13:54:23.724Z,6.67
2018-09-06T13:56:53.280Z,6.30
2018-09-06T13:59:22.456Z,6.60
2018-09-06T14:01:51.656Z,6.35
2018-09-06T14:04:22.440Z,6.53
2018-09-06T14:06:51.891Z,6.72
2018-09-06T14:09:21.081Z,6.92
2018-09-06T14:11:50.284Z,6.95
2018-09-06T14:14:19.452Z,7.22
2018-09-06T14:16:48.707Z,6.90
2018-09-06T14:19:17.913Z,7.28
2018-09-06T14:21:47.134Z,7.20
2018-09-06T14:24:16.376Z,6.40
2018-09-06T14:26:45.524Z,6.45
2018-09-06T14:29:14.697Z,6.62
2018-09-06T14:31:43.896Z,7.25
2018-09-06T14:34:13.062Z,7.17
2018-09-06T14:36:42.260Z,6.67
2018-09-06T14:39:11.466Z,7.20
2018-09-06T14:41:40.662Z,7.30
2018-09-06T14:44:09.927Z,6.28
2018-09-06T14:46:39.068Z,6.90
2018-09-06T14:49:08.284Z,6.95
2018-09-06T14:51:37.521Z,7.10
2018-09-06T14:54:07.035Z,6.97
2018-09-06T14:56:36.249Z,7.35
2018-09-06T14:59:05.733Z,7.12
2018-09-06T15:01:35.097Z,6.87
2018-09-06T15:04:04.295Z,7.97
2018-09-06T15:06:33.501Z,6.60
2018-09-06T15:09:02.768Z,6.70
2018-09-06T15:11:31.956Z,6.53
2018-09-06T15:14:01.272Z,7.33
2018-09-06T15:16:30.366Z,6.70
2018-09-06T15:18:59.565Z,6.87
2018-09-06T15:21:28.778Z,7.40
2018-09-06T15:23:58.253Z,6.60
2018-09-06T15:26:27.581Z,7.15
2018-09-06T15:28:56.834Z,7.33
2018-09-06T15:31:26.181Z,6.70
2018-09-06T15:33:55.368Z,7.60
2018-09-06T15:36:24.572Z,7.42
2018-09-06T15:38:53.806Z,6.87
2018-09-06T15:41:23.060Z,6.67
2018-09-06T15:43:52.271Z,6.92
2018-09-06T15:46:21.505Z,7.58
2018-09-06T15:48:51.014Z,7.08
2018-09-06T15:51:20.205Z,7.15
2018-09-06T15:53:49.427Z,6.90
2018-09-06T15:56:18.636Z,7.17
2018-09-06T15:58:47.845Z,7.08
2018-09-06T16:01:23.692Z,7.08
2018-09-06T16:03:53.042Z,6.53
2018-09-06T16:06:22.221Z,6.78
2018-09-06T16:08:51.440Z,6.70
2018-09-06T16:11:20.970Z,6.62
2018-09-06T16:13:50.140Z,6.78
2018-09-06T16:16:19.334Z,7.15
2018-09-06T16:18:48.972Z,7.00
2018-09-06T16:21:18.172Z,8.95
2018-09-06T16:23:47.381Z,7.50
2018-09-06T16:26:16.619Z,6.90
2018-09-06T16:28:45.828Z,8.03
2018-09-06T16:31:15.044Z,7.67
2018-09-06T16:33:44.300Z,7.42
2018-09-06T16:36:13.478Z,7.08
2018-09-06T16:38:42.673Z,7.03
2018-09-06T16:41:11.904Z,7.90
2018-09-06T16:43:41.276Z,7.62
2018-09-06T16:46:10.473Z,8.20
2018-09-06T16:48:39.812Z,7.37
2018-09-06T16:51:09.067Z,7.00
2018-09-06T16:53:38.340Z,7.72
2018-09-06T16:56:07.576Z,7.17
2018-09-06T16:58:36.784Z,7.65
2018-09-06T17:01:06.082Z,7.95
2018-09-06T17:03:35.312Z,8.10
2018-09-06T17:06:04.479Z,12.05
2018-09-06T17:08:33.708Z,9.33
2018-09-06T17:11:03.520Z,8.80
2018-09-06T17:13:32.776Z,8.68
2018-09-06T17:16:01.988Z,7.72
2018-09-06T17:18:31.222Z,8.73
2018-09-06T17:21:00.428Z,8.93
2018-09-06T17:23:29.802Z,9.00
2018-09-06T17:25:59.112Z,8.55
2018-09-06T17:28:28.389Z,8.30
2018-09-06T17:30:57.577Z,8.65
2018-09-06T17:33:26.792Z,8.18
2018-09-06T17:35:56.004Z,9.00
2018-09-06T17:38:25.243Z,9.08
2018-09-06T17:40:54.428Z,8.93
2018-09-06T17:43:23.636Z,9.28
2018-09-06T17:45:52.971Z,8.88
2018-09-06T17:48:22.205Z,9.53
2018-09-06T17:50:51.390Z,10.30
2018-09-06T17:53:20.624Z,10.08
2018-09-06T17:55:50.419Z,9.48
2018-09-06T17:58:19.623Z,9.50
2018-09-06T18:02:03.667Z,9.28
2018-09-06T18:04:32.991Z,9.15
2018-09-06T18:07:02.203Z,9.30
2018-09-06T18:09:31.516Z,8.53
2018-09-06T18:12:00.725Z,8.48
2018-09-06T18:14:29.956Z,9.45
2018-09-06T18:16:59.183Z,9.38
2018-09-06T18:19:28.383Z,8.83
2018-09-06T18:21:57.621Z,8.93
2018-09-06T18:24:26.875Z,10.72
2018-09-06T18:26:56.089Z,9.00
2018-09-06T18:29:25.600Z,8.28
2018-09-06T18:31:54.857Z,8.78
2018-09-06T18:34:24.051Z,8.98
2018-09-06T18:36:53.632Z,8.95
2018-09-06T18:39:22.841Z,8.23
2018-09-06T18:41:52.060Z,8.83
2018-09-06T18:44:21.724Z,8.58
2018-09-06T18:46:50.936Z,8.95
2018-09-06T18:49:20.400Z,8.63
2018-09-06T18:51:49.606Z,9.13
2018-09-06T18:54:19.282Z,9.13
2018-09-06T18:56:48.472Z,9.48
2018-09-06T18:59:17.720Z,8.68
2018-09-06T19:01:46.936Z,9.45
2018-09-06T19:04:16.128Z,8.70
2018-09-06T19:06:45.488Z,9.50
2018-09-06T19:09:14.767Z,9.33
2018-09-06T19:11:44.429Z,8.95
2018-09-06T19:14:13.937Z,9.15
2018-09-06T19:16:43.609Z,8.15
2018-09-06T19:19:12.844Z,9.25
2018-09-06T19:21:42.063Z,8.68
2018-09-06T19:24:11.293Z,8.63
2018-09-06T19:26:40.864Z,9.38
2018-09-06T19:29:10.108Z,9.28
2018-09-06T19:31:39.324Z,9.50
2018-09-06T19:34:09.424Z,9.80
2018-09-06T19:36:38.632Z,9.28
2018-09-06T19:39:11.266Z,9.48
2018-09-06T19:41:40.524Z,9.20
2018-09-06T19:44:10.123Z,9.38
2018-09-06T19:46:39.318Z,9.13
2018-09-06T19:49:08.596Z,9.00
2018-09-06T19:51:37.859Z,9.05
2018-09-06T19:54:07.323Z,9.93
2018-09-06T19:56:36.664Z,9.48
2018-09-06T19:59:05.963Z,9.25
2018-09-06T20:01:35.306Z,9.43
2018-09-06T20:04:04.532Z,9.98
2018-09-06T20:06:33.738Z,10.50
2018-09-06T20:09:02.958Z,9.70
2018-09-06T20:11:32.200Z,10.48
2018-09-06T20:14:01.509Z,9.30
2018-09-06T20:16:30.760Z,8.93
2018-09-06T20:18:59.972Z,10.03
2018-09-06T20:21:29.665Z,10.13
2018-09-06T20:23:58.909Z,9.73
2018-09-06T20:26:28.229Z,9.80
2018-09-06T20:28:57.725Z,8.50
2018-09-06T20:31:26.945Z,9.40
2018-09-06T20:33:56.149Z,9.30
2018-09-06T20:36:25.365Z,9.03
2018-09-06T20:38:54.549Z,9.23
2018-09-06T20:41:23.816Z,10.68
2018-09-06T20:43:53.032Z,10.05
2018-09-06T20:46:22.253Z,10.10
2018-09-06T20:48:51.458Z,9.18
2018-09-06T20:51:20.676Z,9.63
2018-09-06T20:53:50.312Z,9.43
2018-09-06T20:56:19.512Z,10.18
2018-09-06T20:58:49.009Z,9.93
2018-09-06T21:01:18.228Z,9.28
2018-09-06T21:03:47.434Z,9.93
2018-09-06T21:06:16.690Z,10.43
2018-09-06T21:08:46.516Z,9.83
2018-09-06T21:11:15.705Z,9.90
2018-09-06T21:14:02.156Z,9.95
2018-09-06T21:16:31.418Z,9.45
2018-09-06T21:19:05.407Z,9.45
2018-09-06T21:21:34.684Z,9.73
2018-09-06T21:24:03.884Z,10.60
2018-09-06T21:26:33.173Z,9.93
2018-09-06T21:29:03.285Z,9.05
2018-09-06T21:31:32.513Z,8.80
2018-09-06T21:34:02.357Z,9.40
2018-09-06T21:36:31.902Z,9.75
2018-09-06T21:39:01.108Z,9.53
2018-09-06T21:41:30.383Z,9.43
2018-09-06T21:43:59.575Z,10.30
2018-09-06T21:46:28.778Z,8.98
2018-09-06T21:48:58.394Z,10.00
2018-09-06T21:51:27.622Z,9.50
2018-09-06T21:53:56.809Z,10.60
2018-09-06T21:56:26.028Z,10.00
2018-09-06T21:58:55.388Z,9.88
2018-09-06T22:01:24.928Z,10.20
2018-09-06T22:03:59.365Z,10.28
2018-09-06T22:06:28.616Z,9.60
2018-09-06T22:08:57.821Z,10.03
2018-09-06T22:11:27.026Z,9.55
2018-09-06T22:13:56.235Z,10.35
2018-09-06T22:16:25.476Z,9.98
2018-09-06T22:18:54.669Z,9.78
2018-09-06T22:21:23.901Z,9.50
2018-09-06T22:23:53.422Z,9.28
2018-09-06T22:26:22.652Z,9.03
2018-09-06T22:28:51.941Z,9.93
2018-09-06T22:31:21.192Z,10.53
2018-09-06T22:33:50.400Z,10.65
2018-09-06T22:36:19.606Z,10.20
2018-09-06T22:38:48.824Z,9.98
2018-09-06T22:41:18.076Z,10.13
2018-09-06T22:43:50.177Z,10.40
2018-09-06T22:46:19.457Z,10.32
2018-09-06T22:48:48.752Z,10.48
2018-09-06T22:51:17.931Z,10.63
2018-09-06T22:53:47.104Z,10.43
2018-09-06T22:56:16.365Z,10.90
2018-09-06T22:58:45.549Z,10.53
2018-09-06T23:01:14.760Z,10.38
2018-09-06T23:03:44.692Z,9.93
2018-09-06T23:06:13.900Z,9.88
2018-09-06T23:08:43.131Z,10.03
2018-09-06T23:11:12.334Z,9.83
2018-09-06T23:13:41.544Z,9.70
2018-09-06T23:16:10.792Z,10.15
2018-09-06T23:18:39.984Z,10.43
2018-09-06T23:21:09.200Z,9.85
2018-09-06T23:23:38.403Z,10.93
2018-09-06T23:26:07.964Z,10.93
2018-09-06T23:28:37.204Z,10.55
2018-09-06T23:31:06.436Z,10.88
2018-09-06T23:33:35.667Z,10.45
2018-09-06T23:36:04.913Z,10.30
2018-09-06T23:38:34.110Z,9.55
2018-09-06T23:41:03.340Z,10.15
2018-09-06T23:43:32.556Z,10.13
2018-09-06T23:46:01.748Z,9.75
2018-09-06T23:48:31.104Z,10.65
2018-09-06T23:51:00.313Z,11.15
2018-09-06T23:53:29.603Z,8.33
2018-09-06T23:55:58.796Z,8.05
2018-09-06T23:58:27.964Z,8.20
